Time;durP1;ratioP1;P1;durP2;ratioP2;P2;SDS_P1;SDS_P2;PMS_P1;PMS_P2;Temp;Humidity;BMP_temperature;BMP_pressure;BME280_temperature;BME280_humidity;BME280_pressure;Samples;Min_cycle;Max_cycle;Signal;HPM_P1;HPM_P2
2023/06/13 00:00:45;;;;;;;2.08;1.33;;;;;;;19.02;40.03;99414.16;4326611;33;34160;-62
2023/06/13 00:03:13;;;;;;;2.17;0.85;;;;;;;19.39;38.91;99409.91;4326708;33;34127;-62
2023/06/13 00:05:46;;;;;;;1.27;0.70;;;;;;;19.27;39.25;99414.03;4340077;32;34577;-62
2023/06/13 00:08:17;;;;;;;3.40;1.48;;;;;;;19.11;39.77;99416.84;4341265;33;34670;-62
2023/06/13 00:10:48;;;;;;;2.20;0.95;;;;;;;18.85;40.25;99407.13;4340761;32;33856;-62
2023/06/13 00:13:17;;;;;;;1.87;0.85;;;;;;;18.43;41.25;99405.56;4342335;33;33761;-62
2023/06/13 00:15:51;;;;;;;3.55;1.58;;;;;;;18.29;41.08;99407.09;4338811;33;33181;-62
2023/06/13 00:18:20;;;;;;;2.50;1.13;;;;;;;18.92;40.09;99407.28;4342234;33;35199;-62
2023/06/13 00:20:48;;;;;;;2.55;1.15;;;;;;;18.56;40.83;99400.44;4341432;33;33677;-62
2023/06/13 00:23:16;;;;;;;2.70;1.50;;;;;;;18.63;40.63;99401.41;4343234;33;35103;-62
2023/06/13 00:25:44;;;;;;;1.35;0.80;;;;;;;18.88;40.50;99404.06;4340846;32;33554;-62
2023/06/13 00:28:11;;;;;;;3.30;0.95;;;;;;;19.02;40.14;99397.88;4356936;32;34672;-62
2023/06/13 00:30:39;;;;;;;4.50;1.17;;;;;;;18.99;40.04;99400.94;4355418;32;34892;-62
2023/06/13 00:33:07;;;;;;;1.75;0.98;;;;;;;19.30;39.33;99395.53;4357954;32;35034;-62
2023/06/13 00:35:35;;;;;;;3.25;1.40;;;;;;;19.21;39.30;99387.62;4358089;32;33948;-62
2023/06/13 00:38:07;;;;;;;1.55;1.10;;;;;;;19.07;39.71;99389.22;4358632;32;34669;-61
2023/06/13 00:40:35;;;;;;;4.03;1.30;;;;;;;19.49;38.92;99390.66;4357216;32;34066;-61
2023/06/13 00:43:03;;;;;;;2.60;1.23;;;;;;;19.50;38.79;99386.91;4357831;32;33617;-61
2023/06/13 00:45:32;;;;;;;1.95;1.08;;;;;;;19.74;38.06;99384.06;4358557;32;33186;-61
2023/06/13 00:48:04;;;;;;;3.30;1.17;;;;;;;19.50;37.89;99376.06;4327249;33;36840;-62
2023/06/13 00:50:34;;;;;;;3.70;1.65;;;;;;;19.71;38.27;99376.28;4326517;33;35089;-61
2023/06/13 00:53:10;;;;;;;6.87;1.33;;;;;;;19.83;38.05;99375.81;4326723;33;33968;-62
2023/06/13 00:55:38;;;;;;;2.20;1.23;;;;;;;20.08;37.50;99373.72;4324811;33;33236;-61
2023/06/13 00:58:07;;;;;;;3.08;1.60;;;;;;;20.18;37.51;99372.41;4326293;33;33961;-61
2023/06/13 01:00:36;;;;;;;0.95;0.65;;;;;;;20.33;37.79;99364.28;4326494;33;33782;-61
2023/06/13 01:03:09;;;;;;;1.27;0.70;;;;;;;20.37;37.21;99362.88;4328040;33;33446;-61
2023/06/13 01:05:38;;;;;;;2.92;1.50;;;;;;;20.40;37.03;99359.78;4326614;33;34277;-61
2023/06/13 01:08:07;;;;;;;4.55;1.20;;;;;;;20.45;37.03;99359.25;4329433;33;33743;-62
2023/06/13 01:10:36;;;;;;;2.47;1.20;;;;;;;20.26;38.17;99355.19;4327019;33;33785;-62
2023/06/13 01:13:13;;;;;;;3.67;1.15;;;;;;;20.38;37.98;99352.84;4309803;33;33717;-61
2023/06/13 01:15:48;;;;;;;2.50;1.20;;;;;;;20.42;37.44;99346.84;4311902;33;33173;-61
2023/06/13 01:18:22;;;;;;;2.22;1.08;;;;;;;20.48;36.09;99346.09;4321241;32;34710;-62
2023/06/13 01:20:56;;;;;;;3.00;1.05;;;;;;;20.01;36.94;99347.28;4346276;32;33684;-62
2023/06/13 01:23:49;;;;;;;13.27;1.85;;;;;;;20.25;37.19;99354.31;4343159;32;33933;-63
2023/06/13 01:26:36;;;;;;;2.37;1.08;;;;;;;20.44;36.57;99352.94;4343214;32;33195;-62
2023/06/13 01:29:05;;;;;;;2.55;1.10;;;;;;;20.30;37.18;99356.50;4346671;32;33907;-62
2023/06/13 01:31:32;;;;;;;2.20;1.15;;;;;;;20.46;36.88;99344.59;4343450;32;34809;-62
2023/06/13 01:34:00;;;;;;;2.55;1.30;;;;;;;19.99;37.32;99351.22;4358650;32;34585;-62
2023/06/13 01:36:28;;;;;;;5.40;1.30;;;;;;;20.07;37.62;99344.87;4357769;32;34191;-62
2023/06/13 01:38:56;;;;;;;2.47;0.82;;;;;;;20.33;36.86;99339.81;4357787;32;34390;-62
2023/06/13 01:41:23;;;;;;;1.98;1.08;;;;;;;20.32;36.93;99346.31;4359092;32;35268;-62
2023/06/13 01:43:51;;;;;;;1.17;0.98;;;;;;;20.31;36.75;99341.88;4360601;32;33383;-62
2023/06/13 01:46:26;;;;;;;1.90;1.23;;;;;;;20.06;37.66;99335.84;4362172;32;33422;-62
2023/06/13 01:49:00;;;;;;;6.50;1.10;;;;;;;20.07;37.54;99343.00;4359817;32;33677;-62
2023/06/13 01:51:32;;;;;;;1.48;0.75;;;;;;;19.67;37.24;99338.78;4347396;32;33737;-62
2023/06/13 01:54:03;;;;;;;2.03;1.30;;;;;;;19.78;36.79;99338.37;4346281;32;34551;-62
2023/06/13 01:56:32;;;;;;;1.02;0.75;;;;;;;19.44;37.90;99336.06;4346622;32;33371;-61
2023/06/13 01:59:04;;;;;;;2.30;1.20;;;;;;;19.41;37.83;99339.97;4359238;32;33531;-62
2023/06/13 02:01:32;;;;;;;2.55;1.25;;;;;;;19.68;37.56;99329.63;4346155;32;34075;-62
2023/06/13 02:04:04;;;;;;;1.95;1.02;;;;;;;19.35;38.55;99337.16;4344179;32;34236;-62
2023/06/13 02:06:35;;;;;;;1.77;1.08;;;;;;;19.65;37.48;99336.28;4359139;32;33383;-62
2023/06/13 02:09:03;;;;;;;1.52;0.73;;;;;;;19.73;37.52;99336.19;4357771;32;34809;-62
2023/06/13 02:11:31;;;;;;;3.15;1.40;;;;;;;19.43;38.73;99337.94;4360760;32;33802;-62
2023/06/13 02:13:58;;;;;;;1.23;0.70;;;;;;;19.78;37.56;99341.91;4359404;32;33487;-62
2023/06/13 02:16:29;;;;;;;1.80;1.00;;;;;;;19.45;38.16;99340.47;4359051;32;33343;-62
2023/06/13 02:19:01;;;;;;;0.90;0.70;;;;;;;19.69;37.81;99339.47;4359244;32;33633;-62
2023/06/13 02:21:29;;;;;;;1.75;1.15;;;;;;;19.92;37.30;99336.69;4358224;32;34389;-62
2023/06/13 02:23:58;;;;;;;2.35;0.82;;;;;;;19.94;37.37;99331.94;4358012;32;33977;-62
2023/06/13 02:26:28;;;;;;;1.70;0.88;;;;;;;19.84;37.32;99336.75;4359998;32;33583;-62
2023/06/13 02:29:00;;;;;;;2.92;1.60;;;;;;;19.86;38.24;99334.72;4360227;32;33639;-62
2023/06/13 02:31:28;;;;;;;1.75;1.20;;;;;;;19.92;38.58;99342.97;4359672;32;33953;-62
2023/06/13 02:33:56;;;;;;;2.75;1.30;;;;;;;19.96;38.90;99335.28;4358128;32;33598;-62
2023/06/13 02:36:23;;;;;;;3.30;1.17;;;;;;;19.86;39.45;99335.56;4360242;32;33352;-62
2023/06/13 02:38:51;;;;;;;2.72;1.10;;;;;;;19.80;39.45;99327.31;4359066;32;33641;-62
2023/06/13 02:41:18;;;;;;;1.92;1.08;;;;;;;19.72;39.71;99325.53;4358310;32;33799;-62
2023/06/13 02:43:46;;;;;;;2.03;0.95;;;;;;;19.60;39.89;99321.53;4360659;32;33813;-62
2023/06/13 02:46:15;;;;;;;3.17;1.62;;;;;;;19.66;40.03;99324.38;4359740;32;33182;-62
2023/06/13 02:48:43;;;;;;;2.15;1.10;;;;;;;19.56;40.12;99323.75;4359811;32;33453;-62
2023/06/13 02:51:11;;;;;;;1.67;1.05;;;;;;;19.52;40.19;99333.31;4360628;32;33701;-62
2023/06/13 02:53:39;;;;;;;3.80;1.30;;;;;;;19.42;40.43;99338.09;4357920;32;34651;-62
2023/06/13 02:56:07;;;;;;;4.68;1.60;;;;;;;19.38;40.51;99331.37;4359752;32;33717;-62
2023/06/13 02:58:34;;;;;;;5.95;1.52;;;;;;;19.39;40.84;99331.19;4360819;32;33710;-62
2023/06/13 03:01:02;;;;;;;3.83;1.35;;;;;;;19.25;40.87;99335.50;4360564;32;35046;-62
2023/06/13 03:03:29;;;;;;;3.10;1.85;;;;;;;19.11;41.26;99336.31;4358871;32;33665;-62
2023/06/13 03:05:59;;;;;;;1.95;1.00;;;;;;;19.15;41.10;99340.34;4358152;32;33558;-62
2023/06/13 03:08:27;;;;;;;2.97;1.33;;;;;;;19.11;41.26;99336.31;4360067;32;33524;-62
2023/06/13 03:10:55;;;;;;;2.00;1.27;;;;;;;18.89;41.75;99335.25;4359113;32;33798;-62
2023/06/13 03:13:23;;;;;;;1.95;0.95;;;;;;;18.98;41.57;99330.63;4359981;32;33744;-62
2023/06/13 03:15:51;;;;;;;3.00;1.58;;;;;;;18.85;41.82;99331.22;4360143;32;32702;-62
2023/06/13 03:18:20;;;;;;;1.98;1.00;;;;;;;18.90;41.83;99334.22;4359278;32;34559;-62
2023/06/13 03:20:49;;;;;;;3.03;1.27;;;;;;;18.79;42.09;99327.34;4360253;32;33827;-62
2023/06/13 03:23:17;;;;;;;2.78;1.40;;;;;;;18.71;42.48;99331.91;4361428;32;33839;-62
2023/06/13 03:25:45;;;;;;;6.50;4.35;;;;;;;18.61;43.17;99335.69;4358451;32;33067;-62
2023/06/13 03:28:13;;;;;;;1.92;1.10;;;;;;;18.72;42.91;99326.38;4359851;32;33972;-62
2023/06/13 03:30:41;;;;;;;7.00;1.70;;;;;;;18.87;42.97;99328.31;4355128;32;33749;-62
2023/06/13 03:33:09;;;;;;;3.25;1.77;;;;;;;18.41;44.34;99329.00;4357264;32;34012;-63
2023/06/13 03:35:38;;;;;;;2.67;1.48;;;;;;;18.74;43.54;99327.00;4359824;32;33146;-63
2023/06/13 03:38:06;;;;;;;2.83;1.40;;;;;;;18.78;43.31;99335.63;4358754;32;34476;-63
2023/06/13 03:40:33;;;;;;;1.80;0.93;;;;;;;18.80;43.39;99330.87;4359954;32;33923;-62
2023/06/13 03:43:02;;;;;;;3.60;1.33;;;;;;;18.82;43.48;99326.97;4361076;32;34880;-67
2023/06/13 03:45:29;;;;;;;2.30;1.12;;;;;;;18.82;43.51;99328.84;4360758;32;33344;-61
2023/06/13 03:47:57;;;;;;;2.35;1.08;;;;;;;18.80;43.57;99331.72;4365841;32;33640;-61
2023/06/13 03:50:25;;;;;;;2.75;1.27;;;;;;;18.77;43.93;99333.94;4358844;32;34088;-61
2023/06/13 03:52:52;;;;;;;3.08;1.80;;;;;;;18.76;43.97;99337.69;4359128;32;33850;-61
2023/06/13 03:55:21;;;;;;;1.15;1.05;;;;;;;18.76;43.87;99341.25;4361956;32;33450;-61
2023/06/13 03:57:48;;;;;;;1.73;1.10;;;;;;;18.73;44.13;99340.75;4360920;32;35018;-61
2023/06/13 04:00:16;;;;;;;2.30;1.02;;;;;;;18.78;43.86;99338.34;4355224;32;34007;-61
2023/06/13 04:02:45;;;;;;;1.12;0.88;;;;;;;18.80;43.62;99337.16;4360213;32;33812;-61
2023/06/13 04:05:13;;;;;;;2.58;1.25;;;;;;;18.80;43.55;99339.88;4359855;32;33088;-61
2023/06/13 04:07:42;;;;;;;1.62;0.98;;;;;;;18.78;43.64;99333.78;4359278;32;33737;-61
2023/06/13 04:10:10;;;;;;;1.77;0.90;;;;;;;18.82;43.57;99343.25;4358769;32;35039;-61
2023/06/13 04:12:38;;;;;;;2.45;1.17;;;;;;;18.88;43.39;99341.72;4359671;32;35353;-61
2023/06/13 04:15:06;;;;;;;1.45;0.82;;;;;;;19.01;43.25;99341.12;4359907;32;33643;-61
2023/06/13 04:17:36;;;;;;;1.92;0.95;;;;;;;19.12;43.11;99353.41;4357492;32;35023;-62
2023/06/13 04:20:09;;;;;;;2.67;1.33;;;;;;;19.34;42.57;99343.63;4359623;32;33762;-62
2023/06/13 04:22:36;;;;;;;2.85;1.55;;;;;;;19.40;42.33;99342.88;4361194;32;33654;-63
2023/06/13 04:25:04;;;;;;;1.95;1.23;;;;;;;19.51;42.60;99335.16;4357859;32;34197;-62
2023/06/13 04:27:32;;;;;;;3.53;1.75;;;;;;;19.69;42.98;99340.28;4359670;32;34689;-62
2023/06/13 04:30:00;;;;;;;2.20;1.37;;;;;;;19.45;43.76;99346.72;4356220;32;34974;-62
2023/06/13 04:32:33;;;;;;;3.08;1.20;;;;;;;19.85;43.61;99344.75;4359341;32;34097;-62
2023/06/13 04:35:01;;;;;;;2.87;1.12;;;;;;;20.00;42.73;99344.78;4359049;32;34687;-62
2023/06/13 04:37:30;;;;;;;5.95;1.67;;;;;;;20.06;42.03;99335.84;4359760;32;34058;-63
2023/06/13 04:39:58;;;;;;;3.47;1.20;;;;;;;20.01;41.31;99346.44;4353652;32;33722;-63
2023/06/13 04:42:28;;;;;;;6.65;1.62;;;;;;;20.15;40.28;99345.63;4360168;32;34054;-63
2023/06/13 04:44:58;;;;;;;2.30;1.10;;;;;;;19.97;41.24;99359.56;4358919;32;33235;-63
2023/06/13 04:47:27;;;;;;;4.40;2.20;;;;;;;20.15;40.33;99350.22;4353483;32;34039;-62
2023/06/13 04:50:15;;;;;;;2.72;1.17;;;;;;;20.79;39.15;99346.94;4346715;32;35011;-63
2023/06/13 04:52:43;;;;;;;2.90;1.40;;;;;;;20.82;39.13;99352.84;4358175;32;33769;-63
2023/06/13 04:55:11;;;;;;;3.58;1.55;;;;;;;20.70;37.98;99344.31;4359392;32;34221;-63
2023/06/13 04:57:38;;;;;;;2.17;1.25;;;;;;;20.54;37.46;99347.25;4360126;32;33748;-63
2023/06/13 05:00:08;;;;;;;2.37;1.35;;;;;;;20.90;37.08;99339.13;4358941;32;35181;-63
2023/06/13 05:02:36;;;;;;;2.62;1.37;;;;;;;21.09;36.83;99345.84;4358872;32;33748;-63
2023/06/13 05:05:04;;;;;;;2.17;1.25;;;;;;;21.14;35.79;99351.53;4345632;32;33280;-63
2023/06/13 05:07:32;;;;;;;1.60;0.90;;;;;;;20.61;35.73;99350.03;4357802;32;33829;-63
2023/06/13 05:10:00;;;;;;;2.65;1.23;;;;;;;20.82;35.73;99349.28;4357036;32;33967;-63
2023/06/13 05:12:27;;;;;;;3.95;1.35;;;;;;;21.15;35.40;99355.09;4358896;32;33551;-63
2023/06/13 05:14:55;;;;;;;2.30;1.35;;;;;;;21.37;35.39;99356.84;4360963;32;33203;-63
2023/06/13 05:17:23;;;;;;;5.22;1.77;;;;;;;21.06;35.82;99350.81;4359036;32;34975;-63
2023/06/13 05:19:52;;;;;;;2.30;1.15;;;;;;;21.12;36.19;99356.34;4359402;32;33849;-65
2023/06/13 05:22:20;;;;;;;8.15;1.45;;;;;;;21.43;33.55;99355.22;4358564;32;33845;-66
2023/06/13 05:24:48;;;;;;;1.92;1.27;;;;;;;21.65;33.78;99347.06;4360095;32;33288;-64
2023/06/13 05:27:15;;;;;;;3.08;1.50;;;;;;;21.70;34.35;99348.16;4359120;32;33878;-61
2023/06/13 05:29:43;;;;;;;2.92;1.37;;;;;;;21.47;34.91;99353.78;4361389;32;34278;-61
2023/06/13 05:32:11;;;;;;;2.75;1.42;;;;;;;21.34;34.40;99345.47;4358975;32;34782;-61
2023/06/13 05:34:38;;;;;;;2.05;1.10;;;;;;;21.67;33.74;99342.25;4356974;32;33251;-61
2023/06/13 05:37:10;;;;;;;2.80;1.33;;;;;;;21.69;33.84;99345.63;4357603;32;35067;-61
2023/06/13 05:39:38;;;;;;;4.57;1.35;;;;;;;21.61;33.56;99352.06;4357283;32;35327;-61
2023/06/13 05:42:07;;;;;;;2.05;1.20;;;;;;;21.82;34.46;99348.44;4358390;32;33735;-61
2023/06/13 05:44:34;;;;;;;2.28;1.05;;;;;;;21.37;35.25;99354.13;4360513;32;32845;-61
2023/06/13 05:47:03;;;;;;;2.45;1.37;;;;;;;21.24;34.79;99344.94;4358206;32;34718;-60
2023/06/13 05:49:31;;;;;;;2.80;1.25;;;;;;;21.85;34.62;99350.78;4359522;32;33981;-62
2023/06/13 05:51:58;;;;;;;2.85;1.33;;;;;;;21.71;33.88;99349.84;4356888;32;33582;-62
2023/06/13 05:54:26;;;;;;;1.83;1.20;;;;;;;21.30;33.29;99355.91;4357344;32;34161;-63
2023/06/13 05:56:53;;;;;;;4.05;1.48;;;;;;;21.40;34.51;99352.87;4357980;32;33680;-63
2023/06/13 05:59:21;;;;;;;4.30;1.92;;;;;;;21.49;33.39;99359.06;4358255;32;34439;-64
2023/06/13 06:01:49;;;;;;;2.35;1.17;;;;;;;21.72;34.37;99345.22;4358700;32;33077;-62
2023/06/13 06:04:17;;;;;;;3.25;1.35;;;;;;;21.91;34.36;99352.72;4360494;32;33223;-62
2023/06/13 06:06:45;;;;;;;3.45;1.20;;;;;;;21.86;34.11;99357.91;4358877;32;34649;-62
2023/06/13 06:09:12;;;;;;;10.07;2.78;;;;;;;21.77;34.10;99354.50;4358282;32;33785;-61
2023/06/13 06:11:40;;;;;;;3.20;0.88;;;;;;;21.85;35.95;99356.22;4358228;32;34359;-61
2023/06/13 06:14:07;;;;;;;1.92;1.00;;;;;;;22.13;32.58;99352.69;4357956;32;34231;-61
2023/06/13 06:16:35;;;;;;;3.35;1.48;;;;;;;21.63;33.27;99352.69;4358556;32;33974;-61
2023/06/13 06:19:02;;;;;;;3.00;0.88;;;;;;;21.56;33.25;99358.06;4349584;32;33864;-61
2023/06/13 06:21:30;;;;;;;1.40;0.93;;;;;;;21.49;34.29;99356.34;4358518;32;32064;-61
2023/06/13 06:23:58;;;;;;;1.83;0.95;;;;;;;21.83;33.60;99355.59;4355858;32;33222;-61
2023/06/13 06:26:26;;;;;;;1.60;0.98;;;;;;;21.58;32.80;99355.16;4359311;32;33470;-61
2023/06/13 06:28:53;;;;;;;3.25;1.40;;;;;;;21.71;32.98;99347.13;4361299;32;33605;-61
2023/06/13 06:31:21;;;;;;;2.05;1.33;;;;;;;21.26;34.98;99351.88;4359698;32;34648;-61
2023/06/13 06:33:49;;;;;;;5.07;1.50;;;;;;;21.91;33.24;99341.81;4360895;32;34191;-61
2023/06/13 06:36:16;;;;;;;2.90;1.42;;;;;;;22.05;33.12;99340.91;4359730;32;34865;-62
2023/06/13 06:38:44;;;;;;;2.22;1.20;;;;;;;21.96;33.59;99339.34;4361141;32;34298;-63
2023/06/13 06:41:12;;;;;;;3.67;1.62;;;;;;;21.36;34.62;99335.25;4361376;32;33563;-61
2023/06/13 06:43:39;;;;;;;2.15;1.30;;;;;;;20.55;34.22;99339.94;4347015;32;33073;-61
2023/06/13 06:46:08;;;;;;;3.10;1.52;;;;;;;21.27;32.58;99322.78;4361312;32;33512;-61
2023/06/13 06:48:38;;;;;;;2.87;1.45;;;;;;;21.39;33.77;99326.72;4359572;32;33773;-61
2023/06/13 06:51:06;;;;;;;4.78;1.52;;;;;;;21.35;34.53;99337.16;4360956;32;33877;-61
2023/06/13 06:53:33;;;;;;;2.75;1.27;;;;;;;20.60;34.79;99335.63;4313075;33;33288;-61
2023/06/13 06:56:01;;;;;;;2.42;1.42;;;;;;;21.31;34.49;99340.41;4314278;33;34087;-61
2023/06/13 06:58:28;;;;;;;2.62;0.85;;;;;;;21.75;34.63;99336.66;4313070;33;34900;-61
2023/06/13 07:00:57;;;;;;;2.45;1.30;;;;;;;21.71;33.41;99333.50;4312120;33;34847;-61
2023/06/13 07:03:25;;;;;;;4.30;1.33;;;;;;;21.39;34.50;99338.44;4310459;33;33332;-61
2023/06/13 07:05:53;;;;;;;1.85;1.17;;;;;;;22.08;33.81;99337.75;4310340;33;33486;-61
2023/06/13 07:08:20;;;;;;;1.30;0.85;;;;;;;22.10;33.00;99332.13;4311288;33;33867;-61
2023/06/13 07:10:48;;;;;;;3.95;1.62;;;;;;;22.14;31.79;99327.94;4313423;33;31832;-61
2023/06/13 07:13:18;;;;;;;2.00;1.23;;;;;;;22.48;31.60;99334.47;4312189;33;34450;-62
2023/06/13 07:15:46;;;;;;;3.30;1.45;;;;;;;22.17;33.89;99341.19;4312363;33;33449;-62
2023/06/13 07:18:14;;;;;;;1.75;0.90;;;;;;;21.70;32.29;99328.22;4312407;33;34309;-61
2023/06/13 07:20:44;;;;;;;3.37;1.70;;;;;;;22.50;33.86;99333.25;4311204;33;34892;-61
2023/06/13 07:23:12;;;;;;;5.50;1.70;;;;;;;21.95;34.69;99332.22;4312886;33;34160;-62
2023/06/13 07:25:42;;;;;;;3.47;1.67;;;;;;;22.30;32.95;99329.53;4353271;32;33519;-62
2023/06/13 07:28:10;;;;;;;2.53;1.48;;;;;;;22.96;31.11;99331.78;4357962;32;33845;-62
2023/06/13 07:30:37;;;;;;;6.93;1.55;;;;;;;22.06;31.16;99326.22;4358793;32;33364;-61
2023/06/13 07:33:05;;;;;;;3.17;1.75;;;;;;;21.89;33.24;99330.28;4359587;32;33168;-61
2023/06/13 07:35:33;;;;;;;3.22;1.40;;;;;;;21.76;33.00;99325.56;4357425;32;34550;-62
2023/06/13 07:38:00;;;;;;;4.20;1.45;;;;;;;22.33;31.71;99320.97;4356981;32;33931;-61
2023/06/13 07:40:28;;;;;;;2.37;1.10;;;;;;;22.19;32.30;99319.22;4352992;32;33849;-61
2023/06/13 07:42:56;;;;;;;4.22;1.60;;;;;;;22.08;33.56;99315.09;4356312;32;34321;-61
2023/06/13 07:45:23;;;;;;;3.62;1.02;;;;;;;22.27;31.79;99322.59;4359108;32;33613;-62
2023/06/13 07:47:54;;;;;;;3.28;1.85;;;;;;;22.10;31.97;99313.03;4357701;32;33928;-61
2023/06/13 07:50:23;;;;;;;8.73;1.40;;;;;;;22.16;31.82;99317.72;4352620;32;91700;-62
2023/06/13 07:52:50;;;;;;;1.23;0.82;;;;;;;22.41;33.33;99315.34;4359755;32;33479;-62
2023/06/13 07:55:18;;;;;;;1.58;1.25;;;;;;;21.98;33.54;99315.47;4351257;32;34914;-61
2023/06/13 07:57:46;;;;;;;3.80;1.83;;;;;;;22.00;33.62;99312.56;4356937;32;34724;-61
2023/06/13 08:00:28;;;;;;;3.95;1.10;;;;;;;22.51;33.41;99309.53;4354607;32;33821;-61
2023/06/13 08:02:56;;;;;;;2.85;1.40;;;;;;;22.85;32.86;99300.41;4357805;32;33063;-61
2023/06/13 08:05:24;;;;;;;2.75;1.40;;;;;;;22.04;33.74;99301.03;4358007;32;33499;-62
2023/06/13 08:07:51;;;;;;;3.87;1.62;;;;;;;21.89;35.34;99308.47;4359070;32;33841;-62
2023/06/13 08:10:19;;;;;;;4.85;1.65;;;;;;;22.75;34.16;99310.88;4358189;32;34525;-61
2023/06/13 08:12:47;;;;;;;4.20;1.87;;;;;;;22.68;33.70;99304.56;4357149;32;33343;-62
2023/06/13 08:15:15;;;;;;;4.00;1.70;;;;;;;22.82;32.84;99298.09;4359184;32;33617;-62
2023/06/13 08:17:43;;;;;;;4.45;1.45;;;;;;;22.10;35.77;99296.69;4356012;32;35510;-62
2023/06/13 08:20:10;;;;;;;3.28;1.62;;;;;;;22.35;34.94;99298.97;4356605;32;33239;-62
2023/06/13 08:22:39;;;;;;;3.03;1.45;;;;;;;22.86;34.39;99315.75;4358836;32;33096;-62
2023/06/13 08:25:08;;;;;;;5.87;1.37;;;;;;;22.65;34.20;99303.06;4358571;32;33952;-62
2023/06/13 08:27:36;;;;;;;2.55;1.05;;;;;;;22.47;34.77;99300.91;4355761;32;34735;-62
2023/06/13 08:30:04;;;;;;;3.78;1.52;;;;;;;21.97;34.40;99299.31;4355763;32;33635;-62
2023/06/13 08:32:32;;;;;;;3.05;1.52;;;;;;;22.67;33.50;99303.72;4356099;32;34374;-62
2023/06/13 08:35:01;;;;;;;3.58;1.00;;;;;;;22.42;33.40;99297.94;4359514;32;34914;-62
2023/06/13 08:37:30;;;;;;;2.72;1.60;;;;;;;22.78;34.30;99305.84;4359144;32;35006;-61
2023/06/13 08:39:58;;;;;;;2.35;1.17;;;;;;;22.43;33.52;99296.88;4358684;32;35372;-61
2023/06/13 08:42:26;;;;;;;3.47;1.73;;;;;;;22.58;33.97;99295.94;4359679;32;33488;-61
2023/06/13 08:44:54;;;;;;;3.40;1.58;;;;;;;22.82;34.63;99297.25;4358066;32;34164;-61
2023/06/13 08:47:23;;;;;;;3.25;1.23;;;;;;;23.00;34.15;99297.56;4359487;32;34061;-61
2023/06/13 08:49:53;;;;;;;3.58;1.45;;;;;;;23.12;34.36;99286.91;4353306;32;34121;-61
2023/06/13 08:52:23;;;;;;;2.35;1.10;;;;;;;23.14;33.67;99288.34;4358634;32;33047;-61
2023/06/13 08:54:55;;;;;;;3.60;1.50;;;;;;;22.79;34.69;99299.37;4358146;32;33641;-62
2023/06/13 08:57:42;;;;;;;3.00;1.40;;;;;;;22.75;33.51;99303.53;4359176;32;34022;-61
2023/06/13 09:00:13;;;;;;;8.18;2.42;;;;;;;22.81;32.08;99292.87;4344602;32;34723;-61
2023/06/13 09:02:43;;;;;;;4.28;1.67;;;;;;;23.14;34.10;99298.44;4358876;32;32911;-62
2023/06/13 09:05:15;;;;;;;4.57;1.83;;;;;;;22.61;34.50;99304.53;4357314;32;33549;-61
2023/06/13 09:07:44;;;;;;;3.33;1.45;;;;;;;22.44;34.08;99301.31;4356306;32;34885;-62
2023/06/13 09:10:13;;;;;;;2.87;1.48;;;;;;;22.50;34.44;99295.06;4350844;32;34887;-61
2023/06/13 09:12:45;;;;;;;3.50;1.75;;;;;;;22.65;33.70;99296.78;4358631;32;33651;-61
2023/06/13 09:15:13;;;;;;;6.30;1.55;;;;;;;23.22;34.21;99292.78;4359678;32;34151;-62
2023/06/13 09:17:41;;;;;;;3.85;1.67;;;;;;;23.43;32.96;99298.03;4345017;32;34100;-62
2023/06/13 09:20:10;;;;;;;2.05;1.20;;;;;;;23.40;32.50;99290.31;4345441;32;33826;-61
2023/06/13 09:22:38;;;;;;;2.75;1.48;;;;;;;22.99;32.21;99291.28;4357696;32;33348;-61
2023/06/13 09:25:08;;;;;;;2.45;1.15;;;;;;;23.12;30.85;99287.72;4343707;32;34671;-61
2023/06/13 09:27:36;;;;;;;4.22;1.45;;;;;;;22.27;33.73;99295.34;4353233;32;35794;-61
2023/06/13 09:30:04;;;;;;;7.37;2.12;;;;;;;22.46;33.58;99291.03;4349593;32;33910;-61
2023/06/13 09:32:32;;;;;;;3.42;1.27;;;;;;;23.00;33.61;99297.56;4354449;32;34743;-62
2023/06/13 09:35:02;;;;;;;3.67;1.77;;;;;;;23.32;32.79;99286.94;4358964;32;33886;-61
2023/06/13 09:37:32;;;;;;;5.85;1.37;;;;;;;23.69;32.00;99282.75;4355476;32;35228;-61
2023/06/13 09:40:05;;;;;;;3.47;1.37;;;;;;;23.55;33.20;99278.31;4358061;32;34344;-61
2023/06/13 09:42:54;;;;;;;2.65;1.15;;;;;;;23.74;31.36;99272.03;4353655;32;34474;-61
2023/06/13 09:45:31;;;;;;;4.35;1.73;;;;;;;24.06;31.83;99272.22;4358153;32;33663;-61
2023/06/13 09:47:59;;;;;;;5.47;1.85;;;;;;;23.97;31.97;99278.94;4357497;32;32479;-62
2023/06/13 09:50:29;;;;;;;4.07;1.40;;;;;;;23.74;30.43;99282.13;4356402;32;34976;-62
2023/06/13 09:52:58;;;;;;;4.15;2.03;;;;;;;23.49;30.71;99285.44;4342506;32;32670;-61
2023/06/13 09:55:26;;;;;;;3.42;1.48;;;;;;;24.06;30.37;99288.59;4354601;32;33689;-62
2023/06/13 09:57:53;;;;;;;3.83;1.50;;;;;;;23.49;30.88;99294.47;4357368;32;33634;-62
2023/06/13 10:00:41;;;;;;;4.32;1.80;;;;;;;24.00;29.83;99278.53;4354869;32;34251;-62
2023/06/13 10:03:09;;;;;;;2.58;1.23;;;;;;;24.50;30.19;99281.59;4359426;32;33579;-62
2023/06/13 10:05:47;;;;;;;3.10;1.55;;;;;;;24.25;30.77;99290.47;4357184;32;34262;-62
2023/06/13 10:08:15;;;;;;;5.30;1.62;;;;;;;24.59;30.42;99283.84;4358903;32;34321;-62
2023/06/13 10:10:43;;;;;;;4.85;1.42;;;;;;;24.36;29.57;99289.78;4353403;32;33930;-62
2023/06/13 10:13:14;;;;;;;1.65;1.02;;;;;;;23.89;30.72;99283.59;4360436;32;33441;-63
2023/06/13 10:15:49;;;;;;;5.25;1.45;;;;;;;24.20;30.05;99284.78;4343547;32;33412;-63
2023/06/13 10:18:20;;;;;;;2.42;1.33;;;;;;;24.40;29.87;99277.37;4357982;32;33788;-63
2023/06/13 10:20:49;;;;;;;3.97;1.30;;;;;;;24.70;29.16;99267.81;4358313;32;35346;-62
2023/06/13 10:23:19;;;;;;;4.40;2.03;;;;;;;24.62;28.37;99266.16;4356215;32;34645;-61
2023/06/13 10:25:51;;;;;;;8.48;1.50;;;;;;;24.61;28.47;99261.75;4348021;32;33759;-61
2023/06/13 10:28:28;;;;;;;2.62;1.40;;;;;;;24.77;29.80;99254.94;4326278;33;35162;-61
2023/06/13 10:31:05;;;;;;;3.53;1.27;;;;;;;24.87;29.06;99263.50;4324443;33;34839;-61
2023/06/13 10:34:21;;;;;;;2.78;1.25;;;;;;;24.85;29.75;99268.38;4335301;32;32867;-61
2023/06/13 10:36:57;;;;;;;2.78;1.33;;;;;;;25.09;28.70;99261.28;4259260;33;34586;-61
2023/06/13 10:39:52;;;;;;;2.78;1.60;;;;;;;25.57;27.82;99263.47;4265333;33;33820;-61
2023/06/13 10:42:25;;;;;;;3.65;1.67;;;;;;;25.51;26.45;99258.88;4254705;33;33397;-61
2023/06/13 10:44:59;;;;;;;2.40;1.33;;;;;;;24.98;27.88;99260.09;4258309;33;33523;-61
2023/06/13 10:47:30;;;;;;;2.30;1.12;;;;;;;25.24;27.81;99248.13;4256071;33;33395;-62
2023/06/13 10:49:59;;;;;;;2.58;1.52;;;;;;;25.40;27.34;99252.22;4255268;33;34898;-61
2023/06/13 10:52:28;;;;;;;5.85;2.03;;;;;;;25.53;26.18;99245.81;4249317;33;32567;-61
2023/06/13 10:55:01;;;;;;;3.85;1.52;;;;;;;25.23;28.31;99254.69;4234725;33;33459;-61
2023/06/13 10:57:48;;;;;;;2.45;1.17;;;;;;;25.42;29.14;99246.50;4252182;33;33502;-61
2023/06/13 11:00:23;;;;;;;5.22;1.70;;;;;;;25.41;28.35;99245.69;4273905;33;33808;-61
2023/06/13 11:03:01;;;;;;;3.15;1.33;;;;;;;25.45;28.35;99244.16;4281720;33;33785;-62
2023/06/13 11:05:29;;;;;;;4.30;1.62;;;;;;;24.90;27.04;99243.06;4280285;33;33067;-62
2023/06/13 11:08:18;;;;;;;4.35;1.75;;;;;;;25.64;27.03;99247.81;4282814;33;33507;-62
2023/06/13 11:10:48;;;;;;;2.22;1.25;;;;;;;25.68;27.47;99246.31;4311075;32;34453;-62
2023/06/13 11:13:23;;;;;;;2.65;1.48;;;;;;;25.51;29.23;99250.66;4357481;32;33870;-62
2023/06/13 11:15:55;;;;;;;3.72;1.60;;;;;;;25.42;28.28;99241.03;4356118;32;34683;-62
2023/06/13 11:18:29;;;;;;;4.90;2.15;;;;;;;25.93;26.72;99232.56;4359678;32;34906;-61
2023/06/13 11:20:59;;;;;;;2.30;1.00;;;;;;;25.50;27.09;99240.78;4352971;32;34245;-62
2023/06/13 11:23:32;;;;;;;2.35;1.25;;;;;;;25.93;26.63;99232.56;4357567;32;32522;-62
2023/06/13 11:26:00;;;;;;;4.55;1.58;;;;;;;25.58;26.69;99225.94;4358976;32;33984;-62
2023/06/13 11:28:30;;;;;;;3.42;1.62;;;;;;;25.74;27.32;99231.69;4358342;32;34729;-62
2023/06/13 11:31:05;;;;;;;2.67;1.48;;;;;;;26.21;25.81;99229.31;4360276;32;35348;-62
2023/06/13 11:33:41;;;;;;;3.62;1.70;;;;;;;26.26;25.47;99225.91;4360213;32;33247;-62
2023/06/13 11:36:09;;;;;;;5.32;1.55;;;;;;;26.18;25.73;99221.53;4341168;32;33061;-62
2023/06/13 11:38:55;;;;;;;3.05;1.75;;;;;;;25.51;26.77;99226.84;4352512;32;32906;-62
2023/06/13 11:41:23;;;;;;;3.97;1.40;;;;;;;25.91;25.77;99225.66;4345521;32;34971;-63
2023/06/13 11:43:51;;;;;;;1.98;0.93;;;;;;;25.56;24.66;99212.47;4359200;32;33738;-62
2023/06/13 11:46:19;;;;;;;2.45;1.27;;;;;;;26.19;24.63;99214.16;4358072;32;33027;-62